sensor_id;sensor_type;location;lat;lon;timestamp;temperature;humidity
11573;DHT22;5842;52.426;4.886;2022-09-09T00:00:26;15.60;99.90
11573;DHT22;5842;52.426;4.886;2022-09-09T00:02:59;15.60;99.90
11573;DHT22;5842;52.426;4.886;2022-09-09T00:05:33;15.60;99.90
11573;DHT22;5842;52.426;4.886;2022-09-09T00:08:15;15.60;99.90
11573;DHT22;5842;52.426;4.886;2022-09-09T00:10:48;15.60;99.90
11573;DHT22;5842;52.426;4.886;2022-09-09T00:13:22;15.60;99.90
11573;DHT22;5842;52.426;4.886;2022-09-09T00:16:01;15.50;99.90
11573;DHT22;5842;52.426;4.886;2022-09-09T00:18:40;15.50;99.90
11573;DHT22;5842;52.426;4.886;2022-09-09T00:21:13;15.40;99.90
11573;DHT22;5842;52.426;4.886;2022-09-09T00:23:45;15.40;99.90
11573;DHT22;5842;52.426;4.886;2022-09-09T00:26:19;15.30;99.90
11573;DHT22;5842;52.426;4.886;2022-09-09T00:28:55;15.30;99.90
11573;DHT22;5842;52.426;4.886;2022-09-09T00:31:27;15.30;99.90
11573;DHT22;5842;52.426;4.886;2022-09-09T00:33:58;15.30;99.90
11573;DHT22;5842;52.426;4.886;2022-09-09T00:36:28;15.30;99.90
11573;DHT22;5842;52.426;4.886;2022-09-09T00:39:00;15.30;99.90
11573;DHT22;5842;52.426;4.886;2022-09-09T00:41:39;15.20;99.90
11573;DHT22;5842;52.426;4.886;2022-09-09T00:44:19;15.20;99.90
11573;DHT22;5842;52.426;4.886;2022-09-09T00:46:59;15.20;99.90
11573;DHT22;5842;52.426;4.886;2022-09-09T00:49:39;15.20;99.90
11573;DHT22;5842;52.426;4.886;2022-09-09T00:52:22;15.20;99.90
11573;DHT22;5842;52.426;4.886;2022-09-09T00:55:03;15.10;99.90
11573;DHT22;5842;52.426;4.886;2022-09-09T00:57:33;15.10;99.90
11573;DHT22;5842;52.426;4.886;2022-09-09T01:00:19;15.10;99.90
11573;DHT22;5842;52.426;4.886;2022-09-09T01:02:53;15.10;99.90
11573;DHT22;5842;52.426;4.886;2022-09-09T01:05:30;15.00;99.90
11573;DHT22;5842;52.426;4.886;2022-09-09T01:08:02;15.00;99.90
11573;DHT22;5842;52.426;4.886;2022-09-09T01:10:40;15.00;99.90
11573;DHT22;5842;52.426;4.886;2022-09-09T01:13:17;15.00;99.90
11573;DHT22;5842;52.426;4.886;2022-09-09T01:15:46;15.00;99.90
11573;DHT22;5842;52.426;4.886;2022-09-09T01:18:17;15.00;99.90
11573;DHT22;5842;52.426;4.886;2022-09-09T01:20:53;14.90;99.90
11573;DHT22;5842;52.426;4.886;2022-09-09T01:23:34;14.90;99.90
11573;DHT22;5842;52.426;4.886;2022-09-09T01:26:26;14.90;99.90
11573;DHT22;5842;52.426;4.886;2022-09-09T01:28:55;14.90;99.90
11573;DHT22;5842;52.426;4.886;2022-09-09T01:31:28;14.90;99.90
11573;DHT22;5842;52.426;4.886;2022-09-09T01:33:56;14.90;99.90
11573;DHT22;5842;52.426;4.886;2022-09-09T01:36:29;14.80;99.90
11573;DHT22;5842;52.426;4.886;2022-09-09T01:38:59;14.80;99.90
11573;DHT22;5842;52.426;4.886;2022-09-09T01:41:30;14.70;99.90
11573;DHT22;5842;52.426;4.886;2022-09-09T01:43:57;14.70;99.90
11573;DHT22;5842;52.426;4.886;2022-09-09T01:46:25;14.60;99.90
11573;DHT22;5842;52.426;4.886;2022-09-09T01:48:52;14.60;99.90
11573;DHT22;5842;52.426;4.886;2022-09-09T01:51:19;14.60;99.90
11573;DHT22;5842;52.426;4.886;2022-09-09T01:53:47;14.50;99.90
11573;DHT22;5842;52.426;4.886;2022-09-09T01:56:25;14.50;99.90
11573;DHT22;5842;52.426;4.886;2022-09-09T01:59:18;14.50;99.90
11573;DHT22;5842;52.426;4.886;2022-09-09T02:02:02;14.50;99.90
11573;DHT22;5842;52.426;4.886;2022-09-09T02:04:37;14.50;99.90
11573;DHT22;5842;52.426;4.886;2022-09-09T02:07:15;14.50;99.90
11573;DHT22;5842;52.426;4.886;2022-09-09T02:09:57;14.50;99.90
11573;DHT22;5842;52.426;4.886;2022-09-09T02:12:27;14.50;99.90
11573;DHT22;5842;52.426;4.886;2022-09-09T02:15:02;14.40;99.90
11573;DHT22;5842;52.426;4.886;2022-09-09T02:17:33;14.40;99.90
11573;DHT22;5842;52.426;4.886;2022-09-09T02:20:06;14.40;99.90
11573;DHT22;5842;52.426;4.886;2022-09-09T02:22:35;14.40;99.90
11573;DHT22;5842;52.426;4.886;2022-09-09T02:25:07;14.40;99.90
11573;DHT22;5842;52.426;4.886;2022-09-09T02:27:35;14.40;99.90
11573;DHT22;5842;52.426;4.886;2022-09-09T02:30:04;14.40;99.90
11573;DHT22;5842;52.426;4.886;2022-09-09T02:32:34;14.30;99.90
11573;DHT22;5842;52.426;4.886;2022-09-09T02:35:05;14.30;99.90
11573;DHT22;5842;52.426;4.886;2022-09-09T02:37:36;14.40;99.90
11573;DHT22;5842;52.426;4.886;2022-09-09T02:40:05;14.40;99.90
11573;DHT22;5842;52.426;4.886;2022-09-09T02:42:38;14.40;99.90
11573;DHT22;5842;52.426;4.886;2022-09-09T02:45:14;14.40;99.90
11573;DHT22;5842;52.426;4.886;2022-09-09T02:47:48;14.30;99.90
11573;DHT22;5842;52.426;4.886;2022-09-09T02:50:21;14.40;99.90
11573;DHT22;5842;52.426;4.886;2022-09-09T02:53:01;14.40;99.90
11573;DHT22;5842;52.426;4.886;2022-09-09T02:55:38;14.40;99.90
11573;DHT22;5842;52.426;4.886;2022-09-09T02:58:10;14.40;99.90
11573;DHT22;5842;52.426;4.886;2022-09-09T03:00:40;14.40;99.90
11573;DHT22;5842;52.426;4.886;2022-09-09T03:03:08;14.40;99.90
11573;DHT22;5842;52.426;4.886;2022-09-09T03:05:36;14.40;99.90
11573;DHT22;5842;52.426;4.886;2022-09-09T03:08:04;14.30;99.90
11573;DHT22;5842;52.426;4.886;2022-09-09T03:10:32;14.20;99.90
11573;DHT22;5842;52.426;4.886;2022-09-09T03:13:00;14.20;99.90
11573;DHT22;5842;52.426;4.886;2022-09-09T03:15:28;14.10;99.90
11573;DHT22;5842;52.426;4.886;2022-09-09T03:17:59;14.00;99.90
11573;DHT22;5842;52.426;4.886;2022-09-09T03:20:27;14.00;99.90
11573;DHT22;5842;52.426;4.886;2022-09-09T03:22:55;14.00;99.90
11573;DHT22;5842;52.426;4.886;2022-09-09T03:25:23;14.00;99.90
11573;DHT22;5842;52.426;4.886;2022-09-09T03:27:51;14.00;99.90
11573;DHT22;5842;52.426;4.886;2022-09-09T03:30:20;14.00;99.90
11573;DHT22;5842;52.426;4.886;2022-09-09T03:32:47;13.90;99.90
11573;DHT22;5842;52.426;4.886;2022-09-09T03:35:16;13.90;99.90
11573;DHT22;5842;52.426;4.886;2022-09-09T03:37:44;13.90;99.90
11573;DHT22;5842;52.426;4.886;2022-09-09T03:40:11;13.90;99.90
11573;DHT22;5842;52.426;4.886;2022-09-09T03:42:39;14.00;99.90
11573;DHT22;5842;52.426;4.886;2022-09-09T03:45:08;14.00;99.90
11573;DHT22;5842;52.426;4.886;2022-09-09T03:47:36;13.90;99.90
11573;DHT22;5842;52.426;4.886;2022-09-09T03:50:04;13.90;99.90
11573;DHT22;5842;52.426;4.886;2022-09-09T03:52:36;13.90;99.90
11573;DHT22;5842;52.426;4.886;2022-09-09T03:55:04;13.90;99.90
11573;DHT22;5842;52.426;4.886;2022-09-09T03:57:31;13.90;99.90
11573;DHT22;5842;52.426;4.886;2022-09-09T04:00:01;13.90;99.90
11573;DHT22;5842;52.426;4.886;2022-09-09T04:02:28;13.90;99.90
11573;DHT22;5842;52.426;4.886;2022-09-09T04:04:55;13.90;99.90
11573;DHT22;5842;52.426;4.886;2022-09-09T04:07:22;13.90;99.90
11573;DHT22;5842;52.426;4.886;2022-09-09T04:09:52;13.90;99.90
11573;DHT22;5842;52.426;4.886;2022-09-09T04:12:20;13.90;99.90
11573;DHT22;5842;52.426;4.886;2022-09-09T04:14:47;14.00;99.90
11573;DHT22;5842;52.426;4.886;2022-09-09T04:17:15;14.00;99.90
11573;DHT22;5842;52.426;4.886;2022-09-09T04:19:42;14.00;99.90
11573;DHT22;5842;52.426;4.886;2022-09-09T04:22:10;14.00;99.90
11573;DHT22;5842;52.426;4.886;2022-09-09T04:24:37;14.00;99.90
11573;DHT22;5842;52.426;4.886;2022-09-09T04:27:07;14.00;99.90
11573;DHT22;5842;52.426;4.886;2022-09-09T04:29:34;14.10;99.90
11573;DHT22;5842;52.426;4.886;2022-09-09T04:32:01;14.10;99.90
11573;DHT22;5842;52.426;4.886;2022-09-09T04:34:28;14.10;99.90
11573;DHT22;5842;52.426;4.886;2022-09-09T04:36:56;14.10;99.90
11573;DHT22;5842;52.426;4.886;2022-09-09T04:39:25;14.00;99.90
11573;DHT22;5842;52.426;4.886;2022-09-09T04:41:52;14.00;99.90
11573;DHT22;5842;52.426;4.886;2022-09-09T04:44:21;14.00;99.90
11573;DHT22;5842;52.426;4.886;2022-09-09T04:46:48;14.00;99.90
11573;DHT22;5842;52.426;4.886;2022-09-09T04:49:15;14.00;99.90
11573;DHT22;5842;52.426;4.886;2022-09-09T04:51:42;13.90;99.90
11573;DHT22;5842;52.426;4.886;2022-09-09T04:54:09;13.90;99.90
11573;DHT22;5842;52.426;4.886;2022-09-09T04:56:37;13.90;99.90
11573;DHT22;5842;52.426;4.886;2022-09-09T04:59:04;13.90;99.90
11573;DHT22;5842;52.426;4.886;2022-09-09T05:01:33;13.90;99.90
11573;DHT22;5842;52.426;4.886;2022-09-09T05:04:00;13.90;99.90
11573;DHT22;5842;52.426;4.886;2022-09-09T05:06:27;14.00;99.90
11573;DHT22;5842;52.426;4.886;2022-09-09T05:08:57;14.00;99.90
11573;DHT22;5842;52.426;4.886;2022-09-09T05:11:26;14.10;99.90
11573;DHT22;5842;52.426;4.886;2022-09-09T05:13:54;14.00;99.90
11573;DHT22;5842;52.426;4.886;2022-09-09T05:16:22;14.10;99.90
11573;DHT22;5842;52.426;4.886;2022-09-09T05:18:54;14.10;99.90
11573;DHT22;5842;52.426;4.886;2022-09-09T05:21:22;14.10;99.90
11573;DHT22;5842;52.426;4.886;2022-09-09T05:23:50;14.00;99.90
11573;DHT22;5842;52.426;4.886;2022-09-09T05:26:22;14.10;99.90
11573;DHT22;5842;52.426;4.886;2022-09-09T05:28:50;14.10;99.90
11573;DHT22;5842;52.426;4.886;2022-09-09T05:31:17;14.10;99.90
11573;DHT22;5842;52.426;4.886;2022-09-09T05:33:46;14.10;99.90
11573;DHT22;5842;52.426;4.886;2022-09-09T05:36:16;14.10;99.90
11573;DHT22;5842;52.426;4.886;2022-09-09T05:38:44;14.20;99.90
11573;DHT22;5842;52.426;4.886;2022-09-09T05:41:12;14.20;99.90
11573;DHT22;5842;52.426;4.886;2022-09-09T05:43:41;14.30;99.90
11573;DHT22;5842;52.426;4.886;2022-09-09T05:46:12;14.30;99.90
11573;DHT22;5842;52.426;4.886;2022-09-09T05:48:41;14.40;99.90
11573;DHT22;5842;52.426;4.886;2022-09-09T05:51:13;14.40;99.90
11573;DHT22;5842;52.426;4.886;2022-09-09T05:53:44;14.50;99.90
11573;DHT22;5842;52.426;4.886;2022-09-09T05:56:17;14.50;99.90
11573;DHT22;5842;52.426;4.886;2022-09-09T05:58:45;14.70;99.90
11573;DHT22;5842;52.426;4.886;2022-09-09T06:01:15;14.70;99.90
11573;DHT22;5842;52.426;4.886;2022-09-09T06:03:44;14.80;99.90
11573;DHT22;5842;52.426;4.886;2022-09-09T06:06:13;14.90;99.90
11573;DHT22;5842;52.426;4.886;2022-09-09T06:08:41;15.00;99.90
11573;DHT22;5842;52.426;4.886;2022-09-09T06:11:12;15.20;99.90
11573;DHT22;5842;52.426;4.886;2022-09-09T06:13:40;15.30;99.90
11573;DHT22;5842;52.426;4.886;2022-09-09T06:16:08;15.50;99.90
11573;DHT22;5842;52.426;4.886;2022-09-09T06:18:36;15.70;99.90
11573;DHT22;5842;52.426;4.886;2022-09-09T06:21:06;15.80;99.90
11573;DHT22;5842;52.426;4.886;2022-09-09T06:23:33;15.80;99.90
11573;DHT22;5842;52.426;4.886;2022-09-09T06:26:06;15.80;99.90
11573;DHT22;5842;52.426;4.886;2022-09-09T06:28:36;15.80;99.90
11573;DHT22;5842;52.426;4.886;2022-09-09T06:31:04;15.90;99.90
11573;DHT22;5842;52.426;4.886;2022-09-09T06:33:33;15.90;99.90
11573;DHT22;5842;52.426;4.886;2022-09-09T06:36:01;16.00;99.90
11573;DHT22;5842;52.426;4.886;2022-09-09T06:38:29;16.20;99.90
11573;DHT22;5842;52.426;4.886;2022-09-09T06:40:58;16.30;99.90
11573;DHT22;5842;52.426;4.886;2022-09-09T06:43:25;16.40;99.90
11573;DHT22;5842;52.426;4.886;2022-09-09T06:45:56;16.30;99.90
11573;DHT22;5842;52.426;4.886;2022-09-09T06:48:23;16.40;99.90
11573;DHT22;5842;52.426;4.886;2022-09-09T06:50:51;16.40;99.90
11573;DHT22;5842;52.426;4.886;2022-09-09T06:53:19;16.60;99.90
11573;DHT22;5842;52.426;4.886;2022-09-09T06:55:46;16.70;99.90
11573;DHT22;5842;52.426;4.886;2022-09-09T06:58:13;16.80;99.90
11573;DHT22;5842;52.426;4.886;2022-09-09T07:00:41;16.90;99.90
11573;DHT22;5842;52.426;4.886;2022-09-09T07:03:10;17.10;99.90
11573;DHT22;5842;52.426;4.886;2022-09-09T07:05:37;17.40;99.90
11573;DHT22;5842;52.426;4.886;2022-09-09T07:08:05;17.70;99.90
11573;DHT22;5842;52.426;4.886;2022-09-09T07:10:32;17.80;99.90
11573;DHT22;5842;52.426;4.886;2022-09-09T07:13:02;17.90;99.90
11573;DHT22;5842;52.426;4.886;2022-09-09T07:15:30;17.90;99.90
11573;DHT22;5842;52.426;4.886;2022-09-09T07:18:01;17.80;99.90
11573;DHT22;5842;52.426;4.886;2022-09-09T07:20:29;17.70;99.90
11573;DHT22;5842;52.426;4.886;2022-09-09T07:38:48;16.90;99.90
11573;DHT22;5842;52.426;4.886;2022-09-09T07:41:19;16.90;99.90
11573;DHT22;5842;52.426;4.886;2022-09-09T07:43:48;16.80;99.90
11573;DHT22;5842;52.426;4.886;2022-09-09T07:46:17;16.90;99.90
11573;DHT22;5842;52.426;4.886;2022-09-09T07:48:52;16.90;99.90
11573;DHT22;5842;52.426;4.886;2022-09-09T07:51:24;16.90;99.90
11573;DHT22;5842;52.426;4.886;2022-09-09T07:53:55;17.00;99.90
11573;DHT22;5842;52.426;4.886;2022-09-09T07:56:23;17.00;99.90
11573;DHT22;5842;52.426;4.886;2022-09-09T07:58:53;17.00;99.90
11573;DHT22;5842;52.426;4.886;2022-09-09T08:01:22;17.00;99.90
11573;DHT22;5842;52.426;4.886;2022-09-09T08:03:54;17.10;99.90
11573;DHT22;5842;52.426;4.886;2022-09-09T08:06:21;17.10;99.90
11573;DHT22;5842;52.426;4.886;2022-09-09T08:08:51;17.20;99.90
11573;DHT22;5842;52.426;4.886;2022-09-09T08:11:20;17.30;99.90
11573;DHT22;5842;52.426;4.886;2022-09-09T08:13:49;17.40;99.90
11573;DHT22;5842;52.426;4.886;2022-09-09T08:16:18;17.40;99.90
11573;DHT22;5842;52.426;4.886;2022-09-09T08:18:49;17.40;99.90
11573;DHT22;5842;52.426;4.886;2022-09-09T08:21:18;17.50;99.90
11573;DHT22;5842;52.426;4.886;2022-09-09T08:23:47;17.50;99.90
11573;DHT22;5842;52.426;4.886;2022-09-09T08:26:16;17.60;99.90
11573;DHT22;5842;52.426;4.886;2022-09-09T08:28:46;17.80;99.90
11573;DHT22;5842;52.426;4.886;2022-09-09T08:31:15;17.80;99.90
11573;DHT22;5842;52.426;4.886;2022-09-09T08:33:44;17.90;99.90
11573;DHT22;5842;52.426;4.886;2022-09-09T08:36:14;18.00;99.90
11573;DHT22;5842;52.426;4.886;2022-09-09T08:38:42;17.90;99.90
11573;DHT22;5842;52.426;4.886;2022-09-09T08:41:28;17.90;99.90
11573;DHT22;5842;52.426;4.886;2022-09-09T08:44:03;17.90;99.90
11573;DHT22;5842;52.426;4.886;2022-09-09T08:46:37;17.80;99.90
11573;DHT22;5842;52.426;4.886;2022-09-09T08:49:16;17.80;99.90
11573;DHT22;5842;52.426;4.886;2022-09-09T08:51:45;17.80;99.90
11573;DHT22;5842;52.426;4.886;2022-09-09T08:54:13;17.80;99.90
11573;DHT22;5842;52.426;4.886;2022-09-09T08:56:40;17.80;99.90
11573;DHT22;5842;52.426;4.886;2022-09-09T08:59:11;17.80;99.90
11573;DHT22;5842;52.426;4.886;2022-09-09T09:01:51;17.90;99.90
11573;DHT22;5842;52.426;4.886;2022-09-09T09:04:32;17.90;99.90
11573;DHT22;5842;52.426;4.886;2022-09-09T09:07:07;18.00;99.90
11573;DHT22;5842;52.426;4.886;2022-09-09T09:09:45;18.10;99.90
11573;DHT22;5842;52.426;4.886;2022-09-09T09:12:16;18.20;99.90
11573;DHT22;5842;52.426;4.886;2022-09-09T09:14:47;18.40;99.90
11573;DHT22;5842;52.426;4.886;2022-09-09T09:17:17;18.30;99.90
11573;DHT22;5842;52.426;4.886;2022-09-09T09:19:46;18.20;99.90
11573;DHT22;5842;52.426;4.886;2022-09-09T09:22:17;18.10;99.90
11573;DHT22;5842;52.426;4.886;2022-09-09T09:24:51;18.00;99.90
11573;DHT22;5842;52.426;4.886;2022-09-09T09:27:29;18.00;99.90
11573;DHT22;5842;52.426;4.886;2022-09-09T09:30:01;18.10;99.90
11573;DHT22;5842;52.426;4.886;2022-09-09T09:32:37;18.30;99.90
11573;DHT22;5842;52.426;4.886;2022-09-09T09:35:11;18.30;99.90
11573;DHT22;5842;52.426;4.886;2022-09-09T09:37:40;18.30;99.90
11573;DHT22;5842;52.426;4.886;2022-09-09T09:40:10;18.20;99.90
11573;DHT22;5842;52.426;4.886;2022-09-09T09:42:38;18.10;99.90
11573;DHT22;5842;52.426;4.886;2022-09-09T09:45:23;18.00;99.90
11573;DHT22;5842;52.426;4.886;2022-09-09T09:48:02;18.00;99.90
11573;DHT22;5842;52.426;4.886;2022-09-09T09:50:30;18.00;99.90
11573;DHT22;5842;52.426;4.886;2022-09-09T09:53:00;18.00;99.90
11573;DHT22;5842;52.426;4.886;2022-09-09T09:55:29;18.00;99.90
11573;DHT22;5842;52.426;4.886;2022-09-09T09:58:02;18.00;99.90
11573;DHT22;5842;52.426;4.886;2022-09-09T10:00:32;18.10;99.90
11573;DHT22;5842;52.426;4.886;2022-09-09T10:03:01;18.20;99.90
11573;DHT22;5842;52.426;4.886;2022-09-09T10:05:32;18.20;99.90
11573;DHT22;5842;52.426;4.886;2022-09-09T10:08:10;18.40;99.90
11573;DHT22;5842;52.426;4.886;2022-09-09T10:10:51;18.40;99.90
11573;DHT22;5842;52.426;4.886;2022-09-09T10:13:27;18.40;99.90
11573;DHT22;5842;52.426;4.886;2022-09-09T10:16:18;18.40;99.90
11573;DHT22;5842;52.426;4.886;2022-09-09T10:18:58;18.30;99.90
11573;DHT22;5842;52.426;4.886;2022-09-09T10:38:16;20.10;99.90
11573;DHT22;5842;52.426;4.886;2022-09-09T10:41:05;19.80;99.90
11573;DHT22;5842;52.426;4.886;2022-09-09T10:44:13;19.50;99.90
11573;DHT22;5842;52.426;4.886;2022-09-09T10:46:56;19.40;99.90
11573;DHT22;5842;52.426;4.886;2022-09-09T10:49:36;19.40;99.90
11573;DHT22;5842;52.426;4.886;2022-09-09T10:52:17;19.40;99.90
11573;DHT22;5842;52.426;4.886;2022-09-09T10:54:56;19.60;99.90
11573;DHT22;5842;52.426;4.886;2022-09-09T10:57:32;19.70;99.90
11573;DHT22;5842;52.426;4.886;2022-09-09T11:00:04;19.90;99.90
11573;DHT22;5842;52.426;4.886;2022-09-09T11:02:33;20.20;99.90
11573;DHT22;5842;52.426;4.886;2022-09-09T11:05:04;20.60;99.90
11573;DHT22;5842;52.426;4.886;2022-09-09T11:07:37;20.80;99.90
11573;DHT22;5842;52.426;4.886;2022-09-09T11:10:19;20.90;99.90
11573;DHT22;5842;52.426;4.886;2022-09-09T11:12:53;21.10;99.90
11573;DHT22;5842;52.426;4.886;2022-09-09T11:15:29;21.10;99.90
11573;DHT22;5842;52.426;4.886;2022-09-09T11:18:01;21.00;99.90
11573;DHT22;5842;52.426;4.886;2022-09-09T11:20:29;20.80;99.90
11573;DHT22;5842;52.426;4.886;2022-09-09T11:23:00;20.70;99.90
11573;DHT22;5842;52.426;4.886;2022-09-09T11:25:34;20.60;99.90
11573;DHT22;5842;52.426;4.886;2022-09-09T11:28:19;20.30;99.90
11573;DHT22;5842;52.426;4.886;2022-09-09T11:31:04;20.10;99.90
11573;DHT22;5842;52.426;4.886;2022-09-09T11:33:49;20.30;99.90
11573;DHT22;5842;52.426;4.886;2022-09-09T11:36:48;20.30;99.90
11573;DHT22;5842;52.426;4.886;2022-09-09T11:39:44;20.10;99.90
11573;DHT22;5842;52.426;4.886;2022-09-09T11:42:20;19.90;99.90
11573;DHT22;5842;52.426;4.886;2022-09-09T11:44:47;19.70;99.90
11573;DHT22;5842;52.426;4.886;2022-09-09T11:47:23;19.80;99.90
11573;DHT22;5842;52.426;4.886;2022-09-09T11:49:55;19.90;99.90
11573;DHT22;5842;52.426;4.886;2022-09-09T11:52:24;19.90;99.90
11573;DHT22;5842;52.426;4.886;2022-09-09T11:54:55;19.90;99.90
11573;DHT22;5842;52.426;4.886;2022-09-09T11:57:32;19.70;99.90
11573;DHT22;5842;52.426;4.886;2022-09-09T12:00:02;19.60;99.90
11573;DHT22;5842;52.426;4.886;2022-09-09T12:02:30;19.60;99.90
11573;DHT22;5842;52.426;4.886;2022-09-09T12:05:00;19.70;99.90
11573;DHT22;5842;52.426;4.886;2022-09-09T12:07:34;19.80;99.90
11573;DHT22;5842;52.426;4.886;2022-09-09T12:10:17;19.70;99.90
11573;DHT22;5842;52.426;4.886;2022-09-09T12:12:47;19.40;99.90
11573;DHT22;5842;52.426;4.886;2022-09-09T12:15:28;19.50;99.90
11573;DHT22;5842;52.426;4.886;2022-09-09T12:17:57;19.40;99.90
11573;DHT22;5842;52.426;4.886;2022-09-09T12:20:32;19.60;99.90
11573;DHT22;5842;52.426;4.886;2022-09-09T12:23:22;20.10;99.90
11573;DHT22;5842;52.426;4.886;2022-09-09T12:26:05;20.60;99.90
11573;DHT22;5842;52.426;4.886;2022-09-09T12:28:47;21.00;99.90
11573;DHT22;5842;52.426;4.886;2022-09-09T12:33:47;21.50;99.90
11573;DHT22;5842;52.426;4.886;2022-09-09T12:36:18;21.80;99.90
11573;DHT22;5842;52.426;4.886;2022-09-09T12:38:46;21.90;99.90
11573;DHT22;5842;52.426;4.886;2022-09-09T12:41:19;21.70;99.90
11573;DHT22;5842;52.426;4.886;2022-09-09T12:43:48;21.50;99.90
11573;DHT22;5842;52.426;4.886;2022-09-09T12:46:23;21.00;99.90
11573;DHT22;5842;52.426;4.886;2022-09-09T12:48:53;20.70;99.90
11573;DHT22;5842;52.426;4.886;2022-09-09T12:51:26;20.50;99.90
11573;DHT22;5842;52.426;4.886;2022-09-09T12:53:54;20.50;99.90
11573;DHT22;5842;52.426;4.886;2022-09-09T12:56:23;20.40;99.90
11573;DHT22;5842;52.426;4.886;2022-09-09T12:58:55;20.40;99.90
11573;DHT22;5842;52.426;4.886;2022-09-09T13:01:25;20.10;99.90
11573;DHT22;5842;52.426;4.886;2022-09-09T13:03:53;19.90;99.90
11573;DHT22;5842;52.426;4.886;2022-09-09T13:06:22;19.70;99.90
11573;DHT22;5842;52.426;4.886;2022-09-09T13:08:50;19.50;99.90
11573;DHT22;5842;52.426;4.886;2022-09-09T13:11:19;19.40;99.90
11573;DHT22;5842;52.426;4.886;2022-09-09T13:13:53;19.40;99.90
11573;DHT22;5842;52.426;4.886;2022-09-09T13:16:23;19.50;99.90
11573;DHT22;5842;52.426;4.886;2022-09-09T13:18:52;19.70;99.90
11573;DHT22;5842;52.426;4.886;2022-09-09T13:21:31;19.90;99.90
11573;DHT22;5842;52.426;4.886;2022-09-09T13:24:00;20.00;99.90
11573;DHT22;5842;52.426;4.886;2022-09-09T13:26:29;20.00;99.90
11573;DHT22;5842;52.426;4.886;2022-09-09T13:29:16;20.10;99.90
11573;DHT22;5842;52.426;4.886;2022-09-09T13:31:45;20.20;99.90
11573;DHT22;5842;52.426;4.886;2022-09-09T13:34:37;20.30;99.90
11573;DHT22;5842;52.426;4.886;2022-09-09T13:37:37;20.40;99.90
11573;DHT22;5842;52.426;4.886;2022-09-09T13:40:34;20.30;99.90
11573;DHT22;5842;52.426;4.886;2022-09-09T13:43:30;20.30;99.90
11573;DHT22;5842;52.426;4.886;2022-09-09T13:49:54;20.30;99.90
11573;DHT22;5842;52.426;4.886;2022-09-09T13:52:58;20.30;99.90
11573;DHT22;5842;52.426;4.886;2022-09-09T13:56:05;20.30;99.90
11573;DHT22;5842;52.426;4.886;2022-09-09T13:59:05;20.10;99.90
11573;DHT22;5842;52.426;4.886;2022-09-09T14:02:04;20.00;99.90
11573;DHT22;5842;52.426;4.886;2022-09-09T14:05:20;20.00;99.90
11573;DHT22;5842;52.426;4.886;2022-09-09T14:08:25;19.90;99.90
11573;DHT22;5842;52.426;4.886;2022-09-09T14:11:24;19.90;99.90
11573;DHT22;5842;52.426;4.886;2022-09-09T14:14:05;20.00;99.90
11573;DHT22;5842;52.426;4.886;2022-09-09T14:16:53;20.20;99.90
11573;DHT22;5842;52.426;4.886;2022-09-09T14:19:54;20.40;99.90
11573;DHT22;5842;52.426;4.886;2022-09-09T14:23:15;20.60;99.90
11573;DHT22;5842;52.426;4.886;2022-09-09T14:26:13;21.00;99.90
11573;DHT22;5842;52.426;4.886;2022-09-09T14:29:15;21.40;99.90
11573;DHT22;5842;52.426;4.886;2022-09-09T14:32:11;21.60;99.90
11573;DHT22;5842;52.426;4.886;2022-09-09T14:34:57;21.40;99.90
11573;DHT22;5842;52.426;4.886;2022-09-09T14:37:38;21.20;99.90
11573;DHT22;5842;52.426;4.886;2022-09-09T14:40:11;21.00;99.90
11573;DHT22;5842;52.426;4.886;2022-09-09T14:42:48;20.80;99.90
11573;DHT22;5842;52.426;4.886;2022-09-09T14:45:29;20.50;99.90
11573;DHT22;5842;52.426;4.886;2022-09-09T14:47:56;20.30;99.90
11573;DHT22;5842;52.426;4.886;2022-09-09T14:50:24;20.00;99.90
11573;DHT22;5842;52.426;4.886;2022-09-09T14:52:51;19.70;99.90
11573;DHT22;5842;52.426;4.886;2022-09-09T14:55:53;19.50;99.90
11573;DHT22;5842;52.426;4.886;2022-09-09T14:58:31;19.50;99.90
11573;DHT22;5842;52.426;4.886;2022-09-09T15:01:24;19.40;99.90
11573;DHT22;5842;52.426;4.886;2022-09-09T15:04:10;19.40;99.90
11573;DHT22;5842;52.426;4.886;2022-09-09T15:06:39;19.40;99.90
11573;DHT22;5842;52.426;4.886;2022-09-09T15:09:08;19.30;99.90
11573;DHT22;5842;52.426;4.886;2022-09-09T15:11:56;19.30;99.90
11573;DHT22;5842;52.426;4.886;2022-09-09T15:14:38;19.30;99.90
11573;DHT22;5842;52.426;4.886;2022-09-09T15:17:06;19.20;99.90
11573;DHT22;5842;52.426;4.886;2022-09-09T15:19:36;19.20;99.90
11573;DHT22;5842;52.426;4.886;2022-09-09T15:22:04;19.20;99.90
11573;DHT22;5842;52.426;4.886;2022-09-09T15:24:33;19.20;99.90
11573;DHT22;5842;52.426;4.886;2022-09-09T15:27:02;19.10;99.90
11573;DHT22;5842;52.426;4.886;2022-09-09T15:29:29;19.00;99.90
11573;DHT22;5842;52.426;4.886;2022-09-09T15:31:56;18.90;99.90
11573;DHT22;5842;52.426;4.886;2022-09-09T15:34:23;18.80;99.90
11573;DHT22;5842;52.426;4.886;2022-09-09T15:36:51;18.70;99.90
11573;DHT22;5842;52.426;4.886;2022-09-09T15:39:19;18.50;99.90
11573;DHT22;5842;52.426;4.886;2022-09-09T15:41:48;18.40;99.90
11573;DHT22;5842;52.426;4.886;2022-09-09T15:47:27;18.10;99.90
11573;DHT22;5842;52.426;4.886;2022-09-09T15:50:03;17.90;99.90
11573;DHT22;5842;52.426;4.886;2022-09-09T15:52:44;17.70;99.90
11573;DHT22;5842;52.426;4.886;2022-09-09T15:55:20;17.60;99.90
11573;DHT22;5842;52.426;4.886;2022-09-09T15:58:01;17.50;99.90
11573;DHT22;5842;52.426;4.886;2022-09-09T16:00:45;17.40;99.90
11573;DHT22;5842;52.426;4.886;2022-09-09T16:03:41;17.40;99.90
11573;DHT22;5842;52.426;4.886;2022-09-09T16:06:22;17.30;99.90
11573;DHT22;5842;52.426;4.886;2022-09-09T16:09:04;17.20;99.90
11573;DHT22;5842;52.426;4.886;2022-09-09T16:11:34;17.10;99.90
11573;DHT22;5842;52.426;4.886;2022-09-09T16:14:05;17.10;99.90
11573;DHT22;5842;52.426;4.886;2022-09-09T16:16:52;17.10;99.90
11573;DHT22;5842;52.426;4.886;2022-09-09T16:19:34;17.10;99.90
11573;DHT22;5842;52.426;4.886;2022-09-09T16:22:19;17.10;99.90
11573;DHT22;5842;52.426;4.886;2022-09-09T16:24:59;17.10;99.90
11573;DHT22;5842;52.426;4.886;2022-09-09T16:27:40;17.20;99.90
11573;DHT22;5842;52.426;4.886;2022-09-09T16:30:20;17.20;99.90
11573;DHT22;5842;52.426;4.886;2022-09-09T16:32:54;17.20;99.90
11573;DHT22;5842;52.426;4.886;2022-09-09T16:35:29;17.20;99.90
11573;DHT22;5842;52.426;4.886;2022-09-09T16:37:57;17.20;99.90
11573;DHT22;5842;52.426;4.886;2022-09-09T16:40:28;17.20;99.90
11573;DHT22;5842;52.426;4.886;2022-09-09T16:42:55;17.30;99.90
11573;DHT22;5842;52.426;4.886;2022-09-09T16:45:37;17.30;99.90
11573;DHT22;5842;52.426;4.886;2022-09-09T16:48:07;17.40;99.90
11573;DHT22;5842;52.426;4.886;2022-09-09T16:51:02;17.40;99.90
11573;DHT22;5842;52.426;4.886;2022-09-09T16:53:31;17.40;99.90
11573;DHT22;5842;52.426;4.886;2022-09-09T16:56:22;17.40;99.90
11573;DHT22;5842;52.426;4.886;2022-09-09T16:59:00;17.30;99.90
11573;DHT22;5842;52.426;4.886;2022-09-09T17:01:46;17.30;99.90
11573;DHT22;5842;52.426;4.886;2022-09-09T17:04:27;17.30;99.90
11573;DHT22;5842;52.426;4.886;2022-09-09T17:07:18;17.40;99.90
11573;DHT22;5842;52.426;4.886;2022-09-09T17:09:53;17.40;99.90